KAZO/AZO METAR and TAF weather

Enter ICAO airport designator
Station Type Date Time Source
KAZO METAR 2018/12/12 22:53 UTC NOAA

KAZO 122253Z 23008KT 10SM -RA SCT026 OVC035 04/01 A2981 RMK AO2 SLP103 P0000 T00390006


Station Type Date Time Source
KAZO Decoded METAR 2018/12/12 22:53 UTC NOAA

KALAMAZOO/BATTLE CREEK AIRPORT, MI, United States (KAZO) 42-14N 085-33W 272M
Dec 12, 2018 - 05:53 PM EST / 2018.12.12 2253 UTC
Wind: from the SW (230 degrees) at 9 MPH (8 KT):0
Visibility: 10 mile(s):0
Sky conditions: overcast
Weather: light rain
Precipitation last hour: A trace
Temperature: 39.0 F (3.9 C)
Dew Point: 33.1 F (0.6 C)
Relative Humidity: 79%
Pressure (altimeter): 29.81 in. Hg (1009 hPa)
ob: KAZO 122253Z 23008KT 10SM -RA SCT026 OVC035 04/01 A2981 RMK AO2 SLP103 P0000 T00390006
cycle: 23

Station Type Date Time Source
KAZO TAF 2018/12/12 20:36 UTC NOAA

TAF
AMD KAZO 121935Z 1220/1318 19010G18KT P6SM VCSH OVC025
FM130000 23006KT 6SM HZ OVC015
FM130900 18005KT P6SM OVC015


Example: see airport list